createdAt,value
2022-09-06T00:01:08.899Z,14.41
2022-09-06T00:03:35.828Z,14.45
2022-09-06T00:06:07.717Z,14.31
2022-09-06T00:08:34.426Z,14.28
2022-09-06T00:11:01.569Z,14.39
2022-09-06T00:13:28.552Z,14.42
2022-09-06T00:15:55.422Z,14.26
2022-09-06T00:18:22.556Z,14.27
2022-09-06T00:20:49.357Z,14.33
2022-09-06T00:23:16.109Z,14.25
2022-09-06T00:25:42.810Z,14.24
2022-09-06T00:28:09.528Z,14.22
2022-09-06T00:30:37.136Z,14.03
2022-09-06T00:33:03.912Z,14.11
2022-09-06T00:35:30.641Z,14.23
2022-09-06T00:37:59.225Z,14.21
2022-09-06T00:40:27.470Z,14.05
2022-09-06T00:42:54.117Z,14.03
2022-09-06T00:45:21.465Z,14.02
2022-09-06T00:47:48.875Z,13.93
2022-09-06T00:50:18.516Z,13.98
2022-09-06T00:52:47.335Z,13.97
2022-09-06T00:55:14.493Z,13.88
2022-09-06T00:57:41.989Z,13.94
2022-09-06T01:00:10.007Z,13.92
2022-09-06T01:02:37.116Z,14.02
2022-09-06T01:05:05.592Z,14.02
2022-09-06T01:07:51.578Z,14.00
2022-09-06T01:10:39.612Z,13.96
2022-09-06T01:13:31.139Z,13.87
2022-09-06T01:16:11.299Z,13.87
2022-09-06T01:18:50.392Z,13.76
2022-09-06T01:21:23.456Z,13.82
2022-09-06T01:24:30.885Z,13.90
2022-09-06T01:27:25.509Z,13.88
2022-09-06T01:29:54.073Z,13.94
2022-09-06T01:32:30.318Z,13.84
2022-09-06T01:35:05.696Z,13.97
2022-09-06T01:37:33.223Z,13.93
2022-09-06T01:40:00.047Z,13.75
2022-09-06T01:42:31.014Z,13.65
2022-09-06T01:45:02.042Z,13.66
2022-09-06T01:48:13.200Z,13.72
2022-09-06T01:50:49.122Z,13.79
2022-09-06T01:53:46.500Z,13.79
2022-09-06T01:56:24.406Z,13.52
2022-09-06T01:59:22.297Z,13.62
2022-09-06T02:02:14.940Z,13.73
2022-09-06T02:04:57.425Z,13.66
2022-09-06T02:07:28.198Z,13.75
2022-09-06T02:10:03.248Z,13.76
2022-09-06T02:12:32.728Z,13.76
2022-09-06T02:15:15.911Z,13.77
2022-09-06T02:18:00.883Z,13.77
2022-09-06T02:20:31.617Z,13.75
2022-09-06T02:23:04.001Z,13.72
2022-09-06T02:25:38.117Z,13.67
2022-09-06T02:28:07.454Z,13.57
2022-09-06T02:30:40.032Z,13.52
2022-09-06T02:33:16.741Z,13.55
2022-09-06T02:35:46.098Z,13.51
2022-09-06T02:38:13.585Z,13.48
2022-09-06T02:40:40.793Z,13.37
2022-09-06T02:43:07.737Z,13.26
2022-09-06T02:45:34.669Z,13.26
2022-09-06T02:48:01.541Z,13.25
2022-09-06T02:50:28.348Z,13.21
2022-09-06T02:53:06.554Z,13.18
2022-09-06T02:55:33.541Z,13.20
2022-09-06T02:58:00.276Z,13.26
2022-09-06T03:00:27.965Z,13.36
2022-09-06T03:02:55.885Z,13.44
2022-09-06T03:05:24.057Z,13.47
2022-09-06T03:07:51.256Z,13.43
2022-09-06T03:10:17.939Z,13.37
2022-09-06T03:12:45.265Z,13.18
2022-09-06T03:15:14.085Z,13.24
2022-09-06T03:17:41.293Z,13.22
2022-09-06T03:20:10.139Z,13.27
2022-09-06T03:22:37.594Z,13.31
2022-09-06T03:25:04.536Z,13.38
2022-09-06T03:27:31.292Z,13.45
2022-09-06T03:29:58.260Z,13.46
2022-09-06T03:32:24.942Z,13.33
2022-09-06T03:34:51.950Z,13.28
2022-09-06T03:37:19.515Z,13.33
2022-09-06T03:39:46.243Z,13.29
2022-09-06T03:42:12.993Z,13.33
2022-09-06T03:44:39.712Z,13.44
2022-09-06T03:47:06.417Z,13.49
2022-09-06T03:49:33.121Z,13.57
2022-09-06T03:51:59.731Z,13.59
2022-09-06T03:54:28.471Z,13.72
2022-09-06T03:56:55.761Z,13.68
2022-09-06T03:59:22.408Z,13.54
2022-09-06T04:01:49.047Z,13.45
2022-09-06T04:04:15.700Z,13.54
2022-09-06T04:06:42.399Z,13.55
2022-09-06T04:09:09.087Z,13.39
2022-09-06T04:11:35.801Z,13.39
2022-09-06T04:14:02.517Z,13.38
2022-09-06T04:16:29.510Z,13.44
2022-09-06T04:18:56.328Z,13.42
2022-09-06T04:21:23.017Z,13.47
2022-09-06T04:23:49.739Z,13.55
2022-09-06T04:26:16.483Z,13.34
2022-09-06T04:28:43.294Z,13.29
2022-09-06T04:31:09.971Z,13.13
2022-09-06T04:33:38.657Z,13.13
2022-09-06T04:36:08.614Z,13.18
2022-09-06T04:38:38.042Z,13.28
2022-09-06T04:41:05.489Z,13.23
2022-09-06T04:43:32.908Z,13.23
2022-09-06T04:46:04.688Z,13.11
2022-09-06T04:48:31.464Z,13.19
2022-09-06T04:50:58.110Z,13.16
2022-09-06T04:53:24.811Z,13.21
2022-09-06T04:55:51.456Z,13.16
2022-09-06T04:58:18.141Z,13.14
2022-09-06T05:00:44.974Z,13.12
2022-09-06T05:03:11.710Z,13.14
2022-09-06T05:05:38.396Z,13.17
2022-09-06T05:08:05.089Z,13.14
2022-09-06T05:10:31.738Z,13.22
2022-09-06T05:12:58.414Z,13.17
2022-09-06T05:15:25.139Z,13.16
2022-09-06T05:17:51.871Z,13.19
2022-09-06T05:20:18.780Z,13.21
2022-09-06T05:22:53.150Z,13.28
2022-09-06T05:25:20.300Z,13.48
2022-09-06T05:27:47.092Z,13.64
2022-09-06T05:30:14.727Z,13.71
2022-09-06T05:32:41.369Z,13.64
2022-09-06T05:35:08.428Z,13.69
2022-09-06T05:37:35.174Z,13.77
2022-09-06T05:40:02.411Z,13.83
2022-09-06T05:42:29.173Z,14.07
2022-09-06T05:44:55.897Z,14.27
2022-09-06T05:47:22.579Z,14.37
2022-09-06T05:49:49.270Z,14.26
2022-09-06T05:52:17.456Z,14.25
2022-09-06T05:54:44.089Z,14.59
2022-09-06T05:57:10.754Z,14.85
2022-09-06T05:59:37.493Z,14.75
2022-09-06T06:02:07.350Z,14.61
2022-09-06T06:04:34.928Z,14.55
2022-09-06T06:07:01.914Z,14.62
2022-09-06T06:09:28.685Z,14.78
2022-09-06T06:11:55.421Z,14.96
2022-09-06T06:14:22.097Z,15.16
2022-09-06T06:16:48.830Z,15.04
2022-09-06T06:19:15.557Z,14.89
2022-09-06T06:21:43.673Z,15.17
2022-09-06T06:24:10.577Z,15.52
2022-09-06T06:26:37.817Z,15.88
2022-09-06T06:29:08.146Z,16.09
2022-09-06T06:31:36.027Z,16.18
2022-09-06T06:34:04.051Z,16.45
2022-09-06T06:36:35.696Z,16.51
2022-09-06T06:39:05.438Z,16.74
2022-09-06T06:41:32.898Z,16.50
2022-09-06T06:44:01.636Z,16.65
2022-09-06T06:46:31.539Z,17.22
2022-09-06T06:48:58.449Z,17.53
2022-09-06T06:51:28.321Z,19.28
2022-09-06T06:53:56.930Z,21.46
2022-09-06T06:56:35.752Z,23.51
2022-09-06T06:59:04.315Z,25.45
2022-09-06T07:01:32.472Z,27.21
2022-09-06T07:03:59.804Z,26.08
2022-09-06T07:09:18.567Z,23.29
2022-09-06T07:11:46.216Z,24.83
2022-09-06T07:14:12.890Z,25.61
2022-09-06T07:16:39.760Z,25.20
2022-09-06T07:19:06.713Z,24.47
2022-09-06T07:26:30.871Z,24.81
2022-09-06T07:29:00.317Z,25.60
2022-09-06T07:34:15.278Z,25.73
2022-09-06T07:36:41.980Z,25.67
2022-09-06T07:39:08.664Z,26.03
2022-09-06T07:41:35.370Z,26.80
2022-09-06T07:44:02.200Z,28.54
2022-09-06T07:46:28.961Z,29.37
2022-09-06T07:48:55.640Z,28.80
2022-09-06T07:51:22.725Z,28.41
2022-09-06T07:54:07.485Z,29.11
2022-09-06T07:56:42.078Z,29.19
2022-09-06T07:59:09.305Z,28.75
2022-09-06T08:01:38.053Z,28.67
2022-09-06T08:04:08.769Z,27.34
2022-09-06T08:09:25.107Z,26.08
2022-09-06T08:11:52.704Z,26.60
2022-09-06T08:14:20.279Z,25.87
2022-09-06T08:16:47.268Z,25.68
2022-09-06T08:19:14.385Z,27.39
2022-09-06T08:21:41.178Z,28.59
2022-09-06T08:24:12.405Z,29.14
2022-09-06T08:26:45.426Z,27.47
2022-09-06T08:29:12.992Z,27.80
2022-09-06T08:31:42.289Z,27.49
2022-09-06T08:34:09.710Z,27.79
2022-09-06T08:36:36.399Z,26.86
2022-09-06T08:39:06.376Z,26.78
2022-09-06T08:41:42.284Z,26.10
2022-09-06T08:47:13.937Z,24.82
2022-09-06T08:49:44.943Z,24.91
2022-09-06T08:52:25.731Z,24.39
2022-09-06T08:55:07.512Z,24.47
2022-09-06T08:57:54.462Z,24.68
2022-09-06T09:00:21.350Z,25.09
2022-09-06T09:03:02.461Z,25.02
2022-09-06T09:05:37.564Z,24.84
2022-09-06T09:08:37.120Z,24.93
2022-09-06T09:11:07.423Z,24.56
2022-09-06T09:13:47.663Z,23.75
2022-09-06T09:16:15.077Z,23.64
2022-09-06T09:18:47.965Z,23.75
2022-09-06T09:21:18.254Z,22.98
2022-09-06T09:23:50.863Z,22.56
2022-09-06T09:26:17.860Z,22.92
2022-09-06T09:29:04.544Z,23.08
2022-09-06T09:31:36.631Z,22.53
2022-09-06T09:34:04.990Z,22.66
2022-09-06T09:36:33.219Z,22.70
2022-09-06T09:39:00.165Z,22.62
2022-09-06T09:41:36.541Z,22.17
2022-09-06T09:44:07.349Z,21.92
2022-09-06T09:46:35.858Z,21.98
2022-09-06T09:49:28.717Z,21.74
2022-09-06T09:52:11.882Z,21.81
2022-09-06T09:54:42.450Z,21.69
2022-09-06T09:57:17.677Z,21.62
2022-09-06T09:59:49.804Z,21.68
2022-09-06T10:02:31.117Z,21.74
2022-09-06T10:05:03.618Z,21.51
2022-09-06T10:07:32.772Z,21.23
2022-09-06T10:10:14.034Z,21.01
2022-09-06T10:12:42.760Z,20.79
2022-09-06T10:15:12.313Z,20.43
2022-09-06T10:17:50.227Z,20.36
2022-09-06T10:20:17.758Z,20.37
2022-09-06T10:23:02.338Z,20.43
2022-09-06T10:25:49.133Z,20.82
2022-09-06T10:28:36.980Z,21.05
2022-09-06T10:31:10.190Z,21.15
2022-09-06T10:33:48.689Z,20.89
2022-09-06T10:36:21.441Z,21.13
2022-09-06T10:38:59.305Z,21.01
2022-09-06T10:41:42.836Z,21.19
2022-09-06T10:44:30.985Z,21.59
2022-09-06T10:47:10.540Z,22.66
2022-09-06T10:49:39.032Z,22.98
2022-09-06T10:52:09.480Z,23.19
2022-09-06T10:54:41.008Z,23.27
2022-09-06T11:00:13.078Z,23.49
2022-09-06T11:05:53.229Z,23.68
2022-09-06T11:08:57.714Z,23.98
2022-09-06T11:11:40.398Z,24.95
2022-09-06T11:14:12.379Z,25.69
2022-09-06T11:16:48.920Z,26.64
2022-09-06T11:19:25.376Z,27.04
2022-09-06T11:22:22.576Z,26.66
2022-09-06T11:25:18.694Z,26.47
2022-09-06T11:27:51.182Z,26.87
2022-09-06T11:30:20.094Z,26.86
2022-09-06T11:32:50.436Z,27.62
2022-09-06T11:35:30.205Z,26.92
2022-09-06T11:38:08.341Z,26.78
2022-09-06T11:40:43.367Z,26.64
2022-09-06T11:43:18.821Z,26.53
2022-09-06T11:45:52.779Z,26.61
2022-09-06T11:48:34.014Z,25.94
2022-09-06T11:51:10.684Z,25.39
2022-09-06T11:53:49.684Z,25.28
2022-09-06T11:56:42.409Z,25.77
2022-09-06T11:59:24.030Z,25.74
2022-09-06T12:02:05.590Z,25.95
2022-09-06T12:05:00.964Z,25.96
2022-09-06T12:07:29.214Z,25.23
2022-09-06T12:09:56.135Z,24.57
2022-09-06T12:12:52.616Z,24.74
2022-09-06T12:15:31.210Z,24.37
2022-09-06T12:18:00.006Z,24.45
2022-09-06T12:20:48.307Z,24.23
2022-09-06T12:23:37.755Z,24.58
2022-09-06T12:26:06.260Z,24.59
2022-09-06T12:28:34.856Z,24.55
2022-09-06T12:31:19.980Z,24.49
2022-09-06T12:33:48.059Z,24.93
2022-09-06T12:36:19.441Z,24.28
2022-09-06T12:38:59.709Z,24.51
2022-09-06T12:41:29.898Z,23.77
2022-09-06T12:43:59.941Z,23.79
2022-09-06T12:46:30.167Z,24.00
2022-09-06T12:49:00.751Z,23.98
2022-09-06T12:51:27.551Z,23.80
2022-09-06T12:53:58.156Z,23.57
2022-09-06T12:56:27.580Z,23.55
2022-09-06T12:59:10.662Z,23.50
2022-09-06T13:01:39.128Z,23.57
2022-09-06T13:04:13.213Z,23.72
2022-09-06T13:06:43.306Z,23.90
2022-09-06T13:09:15.172Z,23.81
2022-09-06T13:11:48.835Z,23.78
2022-09-06T13:14:29.032Z,23.87
2022-09-06T13:16:59.960Z,23.71
2022-09-06T13:19:38.315Z,23.55
2022-09-06T13:22:11.135Z,23.41
2022-09-06T13:24:46.827Z,23.55
2022-09-06T13:27:24.216Z,23.63
2022-09-06T13:30:00.979Z,23.17
2022-09-06T13:32:28.637Z,23.00
2022-09-06T13:34:57.410Z,22.72
2022-09-06T13:37:31.333Z,22.51
2022-09-06T13:39:59.296Z,22.66
2022-09-06T13:42:39.350Z,22.69
2022-09-06T13:45:23.626Z,22.50
2022-09-06T13:47:50.343Z,22.61
2022-09-06T13:50:17.022Z,22.66
2022-09-06T13:52:43.831Z,22.33
2022-09-06T13:55:15.778Z,22.56
2022-09-06T13:57:42.432Z,22.63
2022-09-06T14:00:09.626Z,22.47
2022-09-06T14:02:37.227Z,22.45
2022-09-06T14:05:04.142Z,22.57
2022-09-06T14:07:30.777Z,22.78
2022-09-06T14:09:57.465Z,22.81
2022-09-06T14:12:24.134Z,22.89
2022-09-06T14:14:50.841Z,23.03
2022-09-06T14:17:17.566Z,23.03
2022-09-06T14:19:44.245Z,22.90
2022-09-06T14:22:10.999Z,22.99
2022-09-06T14:24:37.884Z,22.89
2022-09-06T14:27:07.292Z,23.22
2022-09-06T14:29:35.167Z,23.17
2022-09-06T14:32:02.123Z,23.15
2022-09-06T14:34:29.642Z,23.02
2022-09-06T14:36:56.318Z,23.06
2022-09-06T14:39:23.019Z,23.16
2022-09-06T14:41:50.504Z,22.90
2022-09-06T14:44:17.235Z,23.65
2022-09-06T14:46:44.010Z,23.97
2022-09-06T14:49:10.669Z,24.26
2022-09-06T14:51:38.560Z,24.13
2022-09-06T14:54:11.293Z,24.43
2022-09-06T14:56:40.495Z,24.01
2022-09-06T14:59:09.099Z,23.46
2022-09-06T15:01:38.614Z,23.59
2022-09-06T15:04:07.566Z,23.52
2022-09-06T15:06:36.804Z,23.99
2022-09-06T15:09:04.382Z,23.13
2022-09-06T15:11:31.067Z,22.59
2022-09-06T15:13:58.506Z,23.06
2022-09-06T15:16:25.480Z,23.08
2022-09-06T15:18:53.485Z,23.04
2022-09-06T15:21:20.852Z,23.21
2022-09-06T15:23:47.537Z,22.65
2022-09-06T15:26:15.415Z,23.19
2022-09-06T15:28:44.318Z,23.00
2022-09-06T15:31:13.088Z,23.05
2022-09-06T15:33:41.090Z,23.29
2022-09-06T15:36:10.200Z,23.47
2022-09-06T15:38:42.402Z,23.62
2022-09-06T15:41:11.517Z,23.50
2022-09-06T15:43:42.149Z,23.65
2022-09-06T15:46:09.914Z,23.36
2022-09-06T15:48:48.262Z,23.16
2022-09-06T15:51:17.484Z,22.59
2022-09-06T15:53:44.683Z,22.12
2022-09-06T15:56:14.608Z,22.16
2022-09-06T15:58:41.376Z,21.92
2022-09-06T16:01:14.139Z,22.28
2022-09-06T16:03:52.897Z,22.06
2022-09-06T16:06:28.096Z,22.11
2022-09-06T16:09:09.814Z,22.05
2022-09-06T16:11:37.232Z,22.27
2022-09-06T16:14:06.025Z,21.87
2022-09-06T16:16:34.492Z,21.54
2022-09-06T16:19:01.546Z,21.28
2022-09-06T16:21:32.137Z,21.21
2022-09-06T16:24:07.143Z,21.22
2022-09-06T16:26:37.364Z,21.20
2022-09-06T16:29:05.827Z,21.17
2022-09-06T16:31:40.084Z,21.08
2022-09-06T16:34:08.671Z,21.19
2022-09-06T16:36:35.644Z,21.12
2022-09-06T16:39:03.529Z,21.16
2022-09-06T16:41:36.581Z,21.14
2022-09-06T16:44:03.296Z,21.00
2022-09-06T16:46:30.107Z,20.79
2022-09-06T16:49:04.412Z,20.87
2022-09-06T16:51:31.814Z,20.58
2022-09-06T16:53:59.881Z,20.60
2022-09-06T16:56:28.639Z,20.55
2022-09-06T16:58:57.368Z,20.50
2022-09-06T17:01:26.282Z,20.44
2022-09-06T17:03:53.398Z,20.41
2022-09-06T17:06:21.472Z,20.43
2022-09-06T17:08:48.388Z,20.28
2022-09-06T17:11:20.640Z,20.27
2022-09-06T17:13:50.312Z,20.18
2022-09-06T17:16:36.299Z,20.12
2022-09-06T17:19:03.707Z,19.98
2022-09-06T17:21:31.285Z,19.82
2022-09-06T17:24:03.076Z,19.73
2022-09-06T17:26:31.054Z,19.75
2022-09-06T17:28:58.057Z,19.58
2022-09-06T17:31:26.211Z,19.18
2022-09-06T17:33:53.478Z,19.06
2022-09-06T17:36:23.657Z,19.03
2022-09-06T17:38:53.708Z,18.95
2022-09-06T17:41:25.610Z,18.98
2022-09-06T17:43:54.024Z,19.00
2022-09-06T17:46:25.205Z,18.95
2022-09-06T17:48:54.689Z,18.89
2022-09-06T17:51:21.419Z,18.91
2022-09-06T17:53:48.228Z,18.92
2022-09-06T17:56:16.921Z,18.86
2022-09-06T17:58:52.009Z,18.70
2022-09-06T18:01:18.877Z,18.40
2022-09-06T18:03:47.118Z,18.28
2022-09-06T18:06:16.745Z,18.30
2022-09-06T18:08:44.164Z,18.27
2022-09-06T18:11:14.991Z,18.38
2022-09-06T18:13:42.924Z,18.30
2022-09-06T18:16:10.693Z,18.20
2022-09-06T18:18:37.883Z,18.28
2022-09-06T18:21:06.965Z,18.25
2022-09-06T18:23:34.889Z,18.16
2022-09-06T18:26:04.852Z,18.09
2022-09-06T18:28:33.648Z,18.19
2022-09-06T18:31:03.825Z,18.19
2022-09-06T18:33:30.577Z,18.18
2022-09-06T18:35:57.308Z,18.14
2022-09-06T18:38:24.837Z,18.02
2022-09-06T18:40:57.422Z,18.01
2022-09-06T18:43:28.771Z,18.00
2022-09-06T18:46:03.874Z,17.90
2022-09-06T18:48:33.604Z,17.92
2022-09-06T18:51:05.249Z,17.89
2022-09-06T18:53:32.030Z,17.90
2022-09-06T18:55:59.389Z,17.80
2022-09-06T18:58:26.594Z,17.78
2022-09-06T19:00:54.060Z,17.86
2022-09-06T19:03:20.857Z,17.77
2022-09-06T19:05:47.532Z,17.69
2022-09-06T19:08:14.219Z,17.55
2022-09-06T19:10:40.993Z,17.60
2022-09-06T19:13:07.662Z,17.64
2022-09-06T19:15:34.329Z,17.61
2022-09-06T19:18:01.121Z,17.61
2022-09-06T19:20:27.883Z,17.63
2022-09-06T19:22:54.610Z,17.57
2022-09-06T19:25:21.316Z,17.57
2022-09-06T19:27:48.882Z,17.56
2022-09-06T19:30:15.893Z,17.53
2022-09-06T19:32:42.660Z,17.51
2022-09-06T19:35:09.625Z,17.44
2022-09-06T19:37:36.323Z,17.40
2022-09-06T19:40:03.527Z,17.37
2022-09-06T19:42:30.254Z,17.29
2022-09-06T19:44:57.281Z,17.27
2022-09-06T19:47:24.025Z,17.12
2022-09-06T19:49:50.747Z,17.13
2022-09-06T19:52:17.570Z,17.07
2022-09-06T19:54:44.305Z,16.95
2022-09-06T19:57:11.002Z,16.92
2022-09-06T19:59:39.885Z,16.84
2022-09-06T20:02:06.720Z,16.77
2022-09-06T20:04:33.523Z,16.57
2022-09-06T20:07:00.248Z,16.46
2022-09-06T20:09:26.967Z,16.61
2022-09-06T20:11:53.742Z,16.66
2022-09-06T20:14:20.792Z,16.64
2022-09-06T20:16:47.485Z,16.61
2022-09-06T20:19:15.174Z,16.64
2022-09-06T20:21:42.925Z,16.62
2022-09-06T20:24:09.654Z,16.47
2022-09-06T20:26:36.502Z,16.44
2022-09-06T20:29:04.902Z,16.23
2022-09-06T20:31:32.738Z,16.23
2022-09-06T20:34:01.925Z,16.28
2022-09-06T20:36:28.886Z,16.29
2022-09-06T20:38:56.054Z,16.33
2022-09-06T20:41:24.864Z,16.28
2022-09-06T20:43:56.793Z,16.29
2022-09-06T20:46:26.551Z,16.29
2022-09-06T20:48:56.361Z,16.13
2022-09-06T20:51:24.202Z,16.14
2022-09-06T20:53:55.278Z,16.20
2022-09-06T20:56:24.251Z,16.22
2022-09-06T20:59:01.140Z,16.23
2022-09-06T21:01:35.138Z,16.17
2022-09-06T21:04:04.402Z,16.14
2022-09-06T21:06:35.786Z,16.00
2022-09-06T21:09:04.582Z,15.97
2022-09-06T21:11:31.436Z,15.97
2022-09-06T21:13:58.167Z,15.96
2022-09-06T21:16:28.221Z,15.95
2022-09-06T21:18:57.450Z,15.96
2022-09-06T21:21:25.447Z,16.01
2022-09-06T21:23:52.852Z,15.95
2022-09-06T21:26:19.787Z,15.88
2022-09-06T21:28:47.909Z,15.92
2022-09-06T21:31:15.696Z,15.94
2022-09-06T21:33:48.549Z,15.93
2022-09-06T21:36:18.646Z,15.97
2022-09-06T21:38:47.428Z,16.00
2022-09-06T21:41:17.169Z,15.82
2022-09-06T21:43:45.183Z,15.81
2022-09-06T21:46:17.742Z,15.80
2022-09-06T21:48:49.934Z,15.75
2022-09-06T21:51:19.330Z,15.67
2022-09-06T21:53:48.220Z,15.76
2022-09-06T21:56:16.538Z,15.81
2022-09-06T21:58:44.577Z,15.80
2022-09-06T22:01:11.376Z,15.91
2022-09-06T22:03:41.605Z,15.94
2022-09-06T22:06:09.180Z,15.93
2022-09-06T22:08:36.176Z,15.95
2022-09-06T22:11:14.288Z,16.03
2022-09-06T22:13:41.230Z,16.03
2022-09-06T22:16:08.907Z,16.04
2022-09-06T22:18:36.328Z,16.06
2022-09-06T22:21:10.405Z,16.18
2022-09-06T22:23:39.117Z,16.14
2022-09-06T22:26:09.358Z,16.11
2022-09-06T22:28:36.637Z,16.01
2022-09-06T22:31:04.577Z,16.06
2022-09-06T22:33:31.551Z,16.14
2022-09-06T22:36:00.257Z,16.14
2022-09-06T22:38:30.653Z,16.06
2022-09-06T22:40:58.415Z,16.20
2022-09-06T22:43:25.737Z,16.29
2022-09-06T22:45:52.455Z,16.29
2022-09-06T22:48:19.299Z,16.38
2022-09-06T22:50:46.397Z,16.41
2022-09-06T22:53:13.105Z,16.48
2022-09-06T22:55:39.753Z,16.55
2022-09-06T22:58:06.637Z,16.62
2022-09-06T23:00:36.056Z,16.69
2022-09-06T23:03:03.099Z,16.66
2022-09-06T23:05:31.679Z,16.24
2022-09-06T23:08:01.535Z,16.26
2022-09-06T23:10:29.764Z,16.38
2022-09-06T23:12:56.916Z,16.53
2022-09-06T23:15:23.638Z,16.52
2022-09-06T23:17:50.500Z,16.48
2022-09-06T23:20:17.413Z,16.52
2022-09-06T23:22:44.082Z,16.53
2022-09-06T23:25:10.796Z,16.37
2022-09-06T23:27:37.489Z,15.98
2022-09-06T23:30:05.347Z,16.23
2022-09-06T23:32:33.145Z,16.26
2022-09-06T23:34:59.896Z,16.37
2022-09-06T23:37:26.721Z,16.43
2022-09-06T23:39:53.558Z,16.49
2022-09-06T23:42:21.957Z,16.45
2022-09-06T23:44:49.360Z,16.52
2022-09-06T23:47:16.047Z,16.52
2022-09-06T23:49:45.129Z,16.44
2022-09-06T23:52:11.813Z,16.53
2022-09-06T23:54:38.551Z,16.52
2022-09-06T23:57:05.269Z,16.49
2022-09-06T23:59:32.411Z,16.49
